Time;durP1;ratioP1;P1;durP2;ratioP2;P2;SDS_P1;SDS_P2;PMS_P1;PMS_P2;Temp;Humidity;BMP_temperature;BMP_pressure;BME280_temperature;BME280_humidity;BME280_pressure;Samples;Min_cycle;Max_cycle;Signal;HPM_P1;HPM_P2
2022/06/01 00:01:02;;;;;;;11.43;6.20;;;16.70;99.90;;;;;;5015808;28;20248;-72
2022/06/01 00:03:51;;;;;;;7.40;6.30;;;16.70;99.90;;;;;;5016160;28;20854;-70
2022/06/01 00:06:39;;;;;;;8.10;6.40;;;16.70;99.90;;;;;;5017539;28;20300;-71
2022/06/01 00:09:29;;;;;;;7.90;7.07;;;16.70;99.90;;;;;;5001617;28;20225;-72
2022/06/01 00:12:18;;;;;;;8.70;7.25;;;16.40;99.90;;;;;;5002725;28;20241;-72
2022/06/01 00:15:09;;;;;;;15.05;8.52;;;16.50;99.90;;;;;;4998893;28;20241;-72
2022/06/01 00:17:58;;;;;;;20.23;10.13;;;16.20;99.90;;;;;;5002311;28;20222;-71
2022/06/01 00:20:50;;;;;;;18.70;10.20;;;15.90;99.90;;;;;;4997267;28;20238;-70
2022/06/01 00:23:39;;;;;;;18.58;11.00;;;15.80;99.90;;;;;;5007395;28;20222;-70
2022/06/01 00:26:29;;;;;;;13.75;10.15;;;15.70;99.90;;;;;;5008369;28;20602;-71
2022/06/01 00:29:19;;;;;;;13.75;9.15;;;15.70;99.90;;;;;;5003637;28;20225;-71
2022/06/01 00:32:11;;;;;;;13.38;10.18;;;15.10;99.90;;;;;;5001363;28;20226;-71
2022/06/01 00:35:00;;;;;;;13.10;10.25;;;15.30;99.90;;;;;;5024131;28;20893;-71
2022/06/01 00:37:49;;;;;;;22.67;13.05;;;15.20;99.90;;;;;;4999954;28;20238;-72
2022/06/01 00:40:41;;;;;;;11.63;10.02;;;15.30;99.90;;;;;;5015848;28;20639;-73
2022/06/01 00:43:42;;;;;;;13.68;11.52;;;15.00;99.90;;;;;;5012295;28;20220;-71
2022/06/01 00:46:31;;;;;;;18.50;12.30;;;15.30;99.90;;;;;;5005039;28;20225;-73
2022/06/01 00:49:22;;;;;;;15.73;13.02;;;15.10;99.90;;;;;;5012900;28;20214;-71
2022/06/01 00:52:14;;;;;;;15.15;13.52;;;14.90;99.90;;;;;;5016503;28;20232;-72
2022/06/01 00:55:11;;;;;;;22.25;14.88;;;14.90;99.90;;;;;;5017336;28;20301;-72
2022/06/01 00:58:05;;;;;;;20.85;16.92;;;14.90;99.90;;;;;;4995458;28;20221;-74
2022/06/01 01:01:01;;;;;;;21.98;15.25;;;15.00;99.90;;;;;;5007725;28;20217;-72
2022/06/01 01:03:56;;;;;;;39.55;19.65;;;15.00;99.90;;;;;;5010942;28;20232;-70
2022/06/01 01:06:45;;;;;;;23.67;15.25;;;14.90;99.90;;;;;;5016760;28;20221;-72
2022/06/01 01:09:34;;;;;;;24.08;16.95;;;14.00;99.90;;;;;;5000674;28;20230;-72
2022/06/01 01:12:23;;;;;;;21.77;18.05;;;14.10;99.90;;;;;;5017085;28;20271;-72
2022/06/01 01:15:12;;;;;;;23.85;16.42;;;14.20;99.90;;;;;;5015195;28;20218;-73
2022/06/01 01:18:06;;;;;;;22.75;17.45;;;14.00;99.90;;;;;;5014889;28;20344;-74
2022/06/01 01:21:06;;;;;;;19.40;16.10;;;13.70;99.90;;;;;;5003090;28;20230;-73
2022/06/01 01:24:03;;;;;;;22.83;17.38;;;13.60;99.90;;;;;;5015665;28;20228;-73
2022/06/01 01:26:55;;;;;;;25.80;22.02;;;13.80;99.90;;;;;;5016054;28;20226;-72
2022/06/01 01:29:45;;;;;;;26.42;21.02;;;14.00;99.90;;;;;;5002241;28;20227;-71
2022/06/01 01:32:34;;;;;;;20.52;17.92;;;14.10;99.90;;;;;;5015053;28;20333;-72
2022/06/01 01:35:23;;;;;;;25.90;21.63;;;14.30;99.90;;;;;;5011964;28;20815;-72
2022/06/01 01:38:19;;;;;;;24.13;20.10;;;14.20;99.90;;;;;;5012787;28;20271;-71
2022/06/01 01:41:12;;;;;;;20.95;16.88;;;14.20;99.90;;;;;;5000897;28;20229;-71
2022/06/01 01:44:09;;;;;;;18.83;16.13;;;14.00;99.90;;;;;;5013047;28;20230;-71
2022/06/01 01:46:58;;;;;;;18.60;15.60;;;14.00;99.90;;;;;;5020472;28;20939;-72
2022/06/01 01:49:47;;;;;;;17.05;15.25;;;13.90;99.90;;;;;;5009990;28;20280;-72
2022/06/01 01:52:37;;;;;;;17.67;15.50;;;13.80;99.90;;;;;;5014477;28;20221;-73
2022/06/01 01:55:35;;;;;;;18.60;15.45;;;14.00;99.90;;;;;;5017614;28;20228;-71
2022/06/01 01:58:30;;;;;;;19.17;16.13;;;14.00;99.90;;;;;;5023818;28;20297;-71
2022/06/01 02:01:31;;;;;;;16.40;14.77;;;14.00;99.90;;;;;;4998775;28;20232;-76
2022/06/01 02:07:44;;;;;;;18.73;14.45;;;13.90;99.90;;;;;;5000774;28;20313;-71
2022/06/01 02:13:45;;;;;;;15.93;13.05;;;14.10;99.90;;;;;;4994125;28;20229;-71
2022/06/01 02:16:40;;;;;;;14.85;13.45;;;14.10;99.90;;;;;;5014512;28;20243;-70
2022/06/01 02:19:34;;;;;;;14.57;12.80;;;14.10;99.90;;;;;;5012918;28;20294;-71
2022/06/01 02:22:27;;;;;;;16.42;13.40;;;14.20;99.90;;;;;;5013292;28;20213;-72
2022/06/01 02:25:15;;;;;;;14.65;12.38;;;14.10;99.90;;;;;;5016478;28;20929;-72
2022/06/01 02:28:07;;;;;;;16.27;12.75;;;14.10;99.90;;;;;;5015276;28;20218;-70
2022/06/01 02:30:57;;;;;;;13.02;11.65;;;14.10;99.90;;;;;;5009716;28;20230;-70
2022/06/01 02:33:50;;;;;;;15.15;11.98;;;14.20;99.90;;;;;;5014262;28;20633;-70
2022/06/01 02:36:40;;;;;;;14.32;11.55;;;14.10;99.90;;;;;;5009352;28;20244;-70
2022/06/01 02:39:30;;;;;;;13.93;10.60;;;14.20;99.90;;;;;;5015157;28;20280;-72
2022/06/01 02:42:29;;;;;;;12.90;10.98;;;14.20;99.90;;;;;;5013226;28;20221;-71
2022/06/01 02:45:20;;;;;;;14.43;10.90;;;14.20;99.90;;;;;;5012942;28;20229;-71
2022/06/01 02:48:09;;;;;;;11.63;10.05;;;14.10;99.90;;;;;;5012062;28;20225;-72
2022/06/01 02:51:02;;;;;;;10.73;9.60;;;14.00;99.90;;;;;;5012573;28;20923;-71
2022/06/01 02:53:51;;;;;;;13.23;10.60;;;14.00;99.90;;;;;;5010412;28;20382;-69
2022/06/01 02:56:40;;;;;;;11.68;10.55;;;14.00;99.90;;;;;;5001959;28;20287;-69
2022/06/01 02:59:32;;;;;;;11.57;9.73;;;14.00;99.90;;;;;;4997539;28;20316;-72
2022/06/01 03:02:21;;;;;;;11.38;10.18;;;13.90;99.90;;;;;;5013853;28;20226;-69
2022/06/01 03:05:09;;;;;;;14.55;10.38;;;13.80;99.90;;;;;;5009884;28;20597;-69
2022/06/01 03:08:00;;;;;;;10.82;9.60;;;13.80;99.90;;;;;;5018237;28;20226;-69
2022/06/01 03:10:49;;;;;;;11.60;10.30;;;13.90;99.90;;;;;;5014793;28;20490;-69
2022/06/01 03:13:40;;;;;;;11.75;10.55;;;13.80;99.90;;;;;;5013186;28;20275;-70
2022/06/01 03:16:29;;;;;;;12.07;10.88;;;13.80;99.90;;;;;;4997366;28;20245;-69
2022/06/01 03:19:21;;;;;;;12.50;11.15;;;13.80;99.90;;;;;;4983667;28;20235;-69
2022/06/01 03:22:10;;;;;;;12.00;10.80;;;13.80;99.90;;;;;;5010753;28;20217;-70
2022/06/01 03:25:00;;;;;;;13.38;10.98;;;13.80;99.90;;;;;;5027828;28;20222;-68
2022/06/01 03:27:49;;;;;;;13.27;10.90;;;13.70;99.90;;;;;;4995544;28;20245;-70
2022/06/01 03:30:37;;;;;;;12.18;10.88;;;13.70;99.90;;;;;;4996830;28;20229;-70
2022/06/01 03:33:26;;;;;;;12.93;11.55;;;13.70;99.90;;;;;;5026062;28;20222;-71
2022/06/01 03:36:15;;;;;;;13.90;11.15;;;13.70;99.90;;;;;;4993886;28;20229;-71
2022/06/01 03:39:03;;;;;;;13.13;11.75;;;13.70;99.90;;;;;;5008388;28;20229;-72
2022/06/01 03:41:54;;;;;;;13.10;11.43;;;13.70;99.90;;;;;;5015124;28;20233;-71
2022/06/01 03:47:49;;;;;;;12.95;11.25;;;13.70;99.90;;;;;;5024535;28;20902;-69
2022/06/01 03:50:38;;;;;;;14.23;12.43;;;13.70;99.90;;;;;;5002215;28;20736;-71
2022/06/01 03:53:29;;;;;;;15.20;11.73;;;13.70;99.90;;;;;;4999804;28;20230;-71
2022/06/01 03:56:18;;;;;;;14.27;12.32;;;13.80;99.90;;;;;;5003400;28;20233;-69
2022/06/01 03:59:08;;;;;;;15.60;14.07;;;14.00;99.90;;;;;;5009134;28;20236;-69
2022/06/01 04:02:00;;;;;;;15.15;13.07;;;14.20;99.90;;;;;;4992609;28;20217;-69
2022/06/01 04:04:48;;;;;;;16.67;13.75;;;14.20;99.90;;;;;;5032848;28;20218;-69
2022/06/01 04:07:37;;;;;;;14.82;11.77;;;14.30;99.90;;;;;;4998473;28;20271;-69
2022/06/01 04:10:26;;;;;;;15.30;13.27;;;14.30;99.90;;;;;;5016313;28;20222;-69
2022/06/01 04:13:19;;;;;;;12.85;11.52;;;14.40;99.90;;;;;;5013626;28;20221;-71
2022/06/01 04:16:10;;;;;;;14.05;11.38;;;14.40;99.90;;;;;;4999511;28;20252;-70
2022/06/01 04:19:06;;;;;;;13.98;12.52;;;14.50;99.90;;;;;;4998800;28;20268;-70
2022/06/01 04:21:55;;;;;;;15.48;12.38;;;14.60;99.90;;;;;;5000744;28;20573;-71
2022/06/01 04:24:47;;;;;;;14.88;12.90;;;14.60;99.90;;;;;;5013326;28;20288;-70
2022/06/01 04:27:36;;;;;;;14.48;12.98;;;14.70;99.90;;;;;;5014893;28;20214;-70
2022/06/01 04:30:25;;;;;;;13.57;12.10;;;14.70;99.90;;;;;;4999288;28;21685;-72
2022/06/01 04:33:15;;;;;;;14.40;11.93;;;14.70;99.90;;;;;;5013270;28;20593;-70
2022/06/01 04:36:04;;;;;;;13.55;11.95;;;14.80;99.90;;;;;;5018024;28;20221;-70
2022/06/01 04:38:52;;;;;;;16.73;11.98;;;14.60;99.90;;;;;;4997669;28;20224;-70
2022/06/01 04:41:41;;;;;;;13.25;11.77;;;14.60;99.90;;;;;;5017461;28;20233;-71
2022/06/01 04:44:30;;;;;;;14.18;12.30;;;14.70;99.90;;;;;;5015362;28;20233;-70
2022/06/01 04:47:20;;;;;;;13.32;12.02;;;14.70;99.90;;;;;;5016158;28;20290;-70
2022/06/01 04:50:14;;;;;;;15.13;13.05;;;14.80;99.90;;;;;;5001702;28;22652;-70
2022/06/01 04:53:02;;;;;;;15.15;13.55;;;14.80;99.90;;;;;;5018142;28;20221;-69
2022/06/01 04:55:52;;;;;;;15.82;13.90;;;14.90;99.90;;;;;;5020099;28;20229;-69
2022/06/01 04:58:40;;;;;;;14.95;13.15;;;14.90;99.90;;;;;;5018413;28;20307;-70
2022/06/01 05:01:29;;;;;;;18.35;14.25;;;14.90;99.90;;;;;;5013148;28;20229;-71
2022/06/01 05:04:18;;;;;;;14.90;13.00;;;15.00;99.90;;;;;;5017136;28;20283;-70
2022/06/01 05:07:12;;;;;;;15.85;13.82;;;15.00;99.90;;;;;;5003747;28;20233;-70
2022/06/01 05:10:00;;;;;;;15.85;14.23;;;15.10;99.90;;;;;;5002889;28;20826;-71
2022/06/01 05:12:50;;;;;;;16.40;14.70;;;15.10;99.90;;;;;;5010465;28;20226;-70
2022/06/01 05:15:46;;;;;;;21.45;15.52;;;15.10;99.90;;;;;;5014778;28;20232;-69
2022/06/01 05:18:35;;;;;;;15.35;13.75;;;15.20;99.90;;;;;;5014646;28;20226;-69
2022/06/01 05:21:24;;;;;;;16.40;14.65;;;15.20;99.90;;;;;;5014830;28;20223;-71
2022/06/01 05:24:14;;;;;;;16.98;14.65;;;15.30;99.90;;;;;;5003343;28;20233;-71
2022/06/01 05:27:02;;;;;;;18.02;15.90;;;15.30;99.90;;;;;;5017215;28;20239;-69
2022/06/01 05:29:51;;;;;;;19.88;16.23;;;15.20;99.90;;;;;;5020639;28;20229;-71
2022/06/01 05:32:40;;;;;;;19.17;15.68;;;15.20;99.90;;;;;;5014111;28;20320;-70
2022/06/01 05:35:29;;;;;;;18.35;15.85;;;15.20;99.90;;;;;;5018583;28;20226;-71
2022/06/01 05:38:18;;;;;;;18.27;16.42;;;15.30;99.90;;;;;;5023510;28;20221;-70
2022/06/01 05:41:08;;;;;;;18.42;15.93;;;15.40;99.90;;;;;;5019052;28;20548;-70
2022/06/01 05:44:00;;;;;;;19.58;17.58;;;15.50;99.90;;;;;;5019960;28;20669;-69
2022/06/01 05:46:54;;;;;;;18.15;16.17;;;15.50;99.90;;;;;;5017798;28;20230;-70
2022/06/01 05:49:43;;;;;;;16.70;14.90;;;15.50;99.90;;;;;;5017178;28;20218;-70
2022/06/01 05:52:32;;;;;;;17.00;15.23;;;15.50;99.90;;;;;;5017742;28;20226;-69
2022/06/01 05:55:21;;;;;;;20.17;15.68;;;15.60;99.90;;;;;;5003825;28;20245;-69
2022/06/01 05:58:16;;;;;;;17.92;16.02;;;15.70;99.90;;;;;;5020894;28;20236;-69
2022/06/01 06:01:07;;;;;;;19.40;17.40;;;15.70;99.90;;;;;;5003420;28;20236;-68
2022/06/01 06:03:56;;;;;;;20.63;16.20;;;15.80;99.90;;;;;;5019305;28;20226;-71
2022/06/01 06:06:45;;;;;;;19.23;16.73;;;15.70;99.90;;;;;;5027589;28;20889;-70
2022/06/01 06:09:34;;;;;;;18.50;16.17;;;15.70;99.90;;;;;;5016427;28;20232;-71
2022/06/01 06:12:23;;;;;;;18.58;16.63;;;15.70;99.90;;;;;;5017514;28;20225;-69
2022/06/01 06:15:13;;;;;;;20.60;16.88;;;15.80;99.90;;;;;;5020051;28;20722;-70
2022/06/01 06:18:02;;;;;;;21.77;17.00;;;15.70;99.90;;;;;;5012746;28;21077;-70
2022/06/01 06:20:51;;;;;;;20.00;17.05;;;15.60;99.90;;;;;;5015070;28;20435;-71
2022/06/01 06:23:41;;;;;;;16.25;14.57;;;15.60;99.90;;;;;;5017629;28;20319;-73
2022/06/01 06:26:30;;;;;;;18.92;15.60;;;15.50;99.90;;;;;;5002262;28;20320;-71
2022/06/01 06:29:20;;;;;;;17.70;14.82;;;15.70;99.90;;;;;;5010697;28;20336;-71
2022/06/01 06:32:13;;;;;;;17.08;15.32;;;15.70;99.90;;;;;;5014607;28;20241;-67
2022/06/01 06:35:02;;;;;;;17.23;14.90;;;15.90;99.90;;;;;;5019877;28;20227;-69
2022/06/01 06:37:51;;;;;;;16.38;14.15;;;16.00;99.90;;;;;;5008356;28;20294;-68
2022/06/01 06:40:43;;;;;;;16.95;13.30;;;16.00;99.90;;;;;;5017240;28;20427;-68
2022/06/01 06:43:34;;;;;;;13.27;11.88;;;16.00;99.90;;;;;;5023153;28;20217;-71
2022/06/01 06:46:24;;;;;;;17.38;11.98;;;15.90;99.90;;;;;;5012732;28;20259;-69
2022/06/01 06:49:14;;;;;;;14.43;12.18;;;16.00;99.90;;;;;;5021888;28;20302;-70
2022/06/01 06:52:03;;;;;;;13.38;11.88;;;15.90;99.90;;;;;;5003678;28;20217;-71
2022/06/01 06:54:52;;;;;;;13.55;11.85;;;16.00;99.90;;;;;;5027758;28;20228;-71
2022/06/01 06:57:41;;;;;;;15.07;13.55;;;16.00;99.90;;;;;;5002316;28;20229;-70
2022/06/01 07:00:30;;;;;;;18.85;14.38;;;15.90;99.90;;;;;;5023742;28;20800;-71
2022/06/01 07:03:19;;;;;;;15.68;12.93;;;15.90;99.90;;;;;;5019786;28;20709;-70
2022/06/01 07:06:12;;;;;;;16.48;14.02;;;15.70;99.90;;;;;;5015703;28;20304;-72
2022/06/01 07:09:02;;;;;;;13.98;12.20;;;15.80;99.90;;;;;;5001356;28;20774;-72
2022/06/01 07:11:50;;;;;;;13.50;12.20;;;15.90;99.90;;;;;;5017802;28;20371;-70
2022/06/01 07:14:39;;;;;;;13.88;12.48;;;15.90;99.90;;;;;;5021658;28;20237;-71
2022/06/01 07:17:28;;;;;;;14.82;13.30;;;15.80;99.90;;;;;;5019063;28;20218;-70
2022/06/01 07:20:17;;;;;;;14.77;13.13;;;15.90;99.90;;;;;;5021347;28;20308;-71
2022/06/01 07:23:08;;;;;;;13.68;12.38;;;15.90;99.90;;;;;;5018922;28;20336;-72
2022/06/01 07:25:57;;;;;;;14.40;12.90;;;15.80;99.90;;;;;;5014343;28;20790;-72
2022/06/01 07:28:46;;;;;;;15.52;13.55;;;15.90;99.90;;;;;;5010403;28;20328;-70
2022/06/01 07:31:35;;;;;;;15.63;13.48;;;16.10;99.90;;;;;;5025593;28;20649;-76
2022/06/01 07:34:24;;;;;;;16.92;14.90;;;16.00;99.90;;;;;;5011788;28;20232;-76
2022/06/01 07:43:33;;;;;;;16.48;13.68;;;16.30;99.90;;;;;;5019408;28;20229;-75
2022/06/01 07:46:22;;;;;;;19.20;15.60;;;16.30;99.90;;;;;;5017762;28;20225;-76
2022/06/01 07:49:11;;;;;;;14.88;12.23;;;16.30;99.90;;;;;;5014668;28;20257;-77
2022/06/01 07:52:21;;;;;;;14.32;12.60;;;16.40;99.90;;;;;;5015351;28;20225;-74
2022/06/01 07:55:10;;;;;;;15.60;13.15;;;16.50;99.90;;;;;;5015284;28;20278;-74
2022/06/01 07:58:00;;;;;;;13.95;11.90;;;16.40;99.90;;;;;;4988933;28;20823;-78
2022/06/01 08:00:49;;;;;;;13.63;12.32;;;16.30;99.90;;;;;;5016488;28;20718;-71
2022/06/01 08:03:38;;;;;;;16.27;12.63;;;16.40;99.90;;;;;;5015618;28;20213;-74
2022/06/01 08:06:28;;;;;;;14.93;13.32;;;16.50;99.90;;;;;;5017540;28;20229;-74
2022/06/01 08:09:37;;;;;;;14.32;12.93;;;16.60;99.90;;;;;;5006360;28;20218;-74
2022/06/01 08:15:35;;;;;;;15.70;14.05;;;16.70;99.90;;;;;;5019718;28;20320;-74
2022/06/01 08:18:25;;;;;;;15.57;14.07;;;16.70;99.90;;;;;;5017891;28;20218;-73
2022/06/01 08:21:14;;;;;;;18.00;14.07;;;16.60;99.90;;;;;;5020086;28;20229;-74
2022/06/01 08:24:04;;;;;;;18.70;13.85;;;16.40;99.90;;;;;;5018293;28;20295;-74
2022/06/01 08:26:53;;;;;;;19.13;13.35;;;16.40;99.90;;;;;;5017371;28;20221;-72
2022/06/01 08:29:42;;;;;;;16.90;13.23;;;16.30;99.90;;;;;;5012323;28;20222;-73
2022/06/01 08:32:33;;;;;;;15.18;12.20;;;16.30;99.90;;;;;;5019453;28;20819;-74
2022/06/01 08:35:24;;;;;;;14.38;12.13;;;16.50;99.90;;;;;;5001094;28;20708;-74
2022/06/01 08:38:13;;;;;;;16.20;13.57;;;17.40;99.90;;;;;;5010425;28;20225;-75
2022/06/01 08:41:09;;;;;;;12.55;10.52;;;18.60;99.90;;;;;;5003528;28;20728;-72
2022/06/01 08:44:02;;;;;;;11.57;10.38;;;19.90;99.90;;;;;;5030977;28;20660;-73
2022/06/01 08:46:52;;;;;;;8.38;7.15;;;19.30;99.90;;;;;;5000663;28;20244;-73
2022/06/01 08:49:43;;;;;;;11.13;7.95;;;18.70;99.90;;;;;;5000375;28;20225;-72
2022/06/01 08:52:32;;;;;;;10.70;9.07;;;18.40;99.90;;;;;;5005497;28;20217;-74
2022/06/01 08:55:21;;;;;;;12.40;9.45;;;17.70;99.90;;;;;;5015411;28;20241;-73
2022/06/01 08:58:14;;;;;;;10.93;9.70;;;17.30;99.90;;;;;;5020384;28;20217;-72
2022/06/01 09:01:18;;;;;;;10.00;7.93;;;17.20;99.90;;;;;;5001116;28;20221;-71
2022/06/01 09:04:28;;;;;;;12.48;7.82;;;17.20;99.90;;;;;;5025947;28;20304;-73
2022/06/01 09:07:28;;;;;;;9.45;7.40;;;17.40;99.90;;;;;;5022495;28;20295;-71
2022/06/01 09:10:39;;;;;;;10.25;7.68;;;18.80;99.90;;;;;;5021035;28;20325;-72
2022/06/01 09:13:35;;;;;;;9.82;7.70;;;18.90;99.90;;;;;;5026099;28;20241;-72
2022/06/01 09:16:31;;;;;;;8.35;7.53;;;18.60;99.90;;;;;;5027681;28;20973;-75
2022/06/01 09:19:23;;;;;;;10.23;8.50;;;18.40;99.90;;;;;;5024335;28;20233;-72
2022/06/01 09:25:28;;;;;;;11.82;7.40;;;19.00;99.90;;;;;;5019323;28;20283;-71
2022/06/01 09:28:20;;;;;;;8.18;7.32;;;18.40;99.90;;;;;;5018306;28;20232;-72
2022/06/01 09:31:23;;;;;;;11.38;8.40;;;18.20;99.90;;;;;;5017690;28;20311;-72
2022/06/01 09:34:22;;;;;;;8.63;6.45;;;18.10;99.90;;;;;;5022942;28;20226;-72
2022/06/01 09:37:14;;;;;;;12.43;7.03;;;18.30;99.90;;;;;;5017195;28;20278;-72
2022/06/01 09:40:07;;;;;;;12.02;6.47;;;18.40;99.90;;;;;;5023904;28;20259;-73
2022/06/01 09:43:00;;;;;;;6.80;5.07;;;18.40;99.90;;;;;;5018005;28;20221;-70
2022/06/01 09:45:53;;;;;;;7.93;5.30;;;18.30;99.90;;;;;;5019484;28;20569;-73
2022/06/01 09:48:47;;;;;;;5.50;4.47;;;18.30;99.90;;;;;;5016686;28;20352;-73
2022/06/01 09:51:39;;;;;;;7.10;5.10;;;18.50;99.90;;;;;;5029041;28;22057;-72
2022/06/01 09:54:34;;;;;;;6.30;4.60;;;18.70;99.90;;;;;;5020819;28;20659;-71
2022/06/01 09:57:27;;;;;;;6.07;4.18;;;19.30;99.90;;;;;;5018990;28;20271;-72
2022/06/01 10:06:58;;;;;;;5.15;3.65;;;19.50;99.90;;;;;;4998109;28;20323;-73
2022/06/01 10:09:50;;;;;;;4.05;3.60;;;19.50;99.90;;;;;;5017601;28;20360;-72
2022/06/01 10:12:44;;;;;;;5.45;3.50;;;20.70;99.90;;;;;;5010386;28;20222;-73
2022/06/01 10:15:39;;;;;;;3.40;3.10;;;21.00;99.90;;;;;;5002965;28;20233;-75
2022/06/01 10:18:33;;;;;;;5.63;3.25;;;21.00;99.90;;;;;;5011379;28;20689;-74
2022/06/01 10:21:28;;;;;;;3.63;3.33;;;21.10;99.90;;;;;;5010716;28;21024;-71
2022/06/01 10:24:23;;;;;;;3.55;3.25;;;20.80;99.90;;;;;;5023958;28;20229;-76
2022/06/01 10:27:13;;;;;;;7.97;3.03;;;21.60;99.90;;;;;;5005060;28;20236;-85
2022/06/01 10:30:12;;;;;;;4.28;3.20;;;22.10;99.90;;;;;;4998680;28;20225;-90
2022/06/01 10:33:08;;;;;;;3.78;2.92;;;23.00;99.90;;;;;;5007233;28;20288;-77
2022/06/01 10:36:02;;;;;;;4.43;3.53;;;22.80;99.90;;;;;;5005710;28;20275;-75
2022/06/01 10:38:57;;;;;;;3.78;3.28;;;23.90;99.90;;;;;;4985837;28;20225;-75
2022/06/01 10:41:56;;;;;;;4.80;2.90;;;22.70;99.90;;;;;;5014697;28;20316;-74
2022/06/01 10:44:52;;;;;;;3.55;3.25;;;22.30;99.90;;;;;;5012732;28;20717;-73
2022/06/01 10:47:54;;;;;;;6.35;3.70;;;22.50;99.90;;;;;;5013203;28;20225;-74
2022/06/01 10:51:07;;;;;;;3.58;3.28;;;25.40;99.90;;;;;;5012446;28;20290;-75
2022/06/01 10:54:10;;;;;;;3.40;3.08;;;25.70;99.40;;;;;;5012361;28;20229;-76
2022/06/01 10:56:59;;;;;;;5.30;3.33;;;25.10;99.90;;;;;;5029591;28;20345;-76
2022/06/01 10:59:52;;;;;;;5.93;3.33;;;24.70;98.00;;;;;;5014125;28;20276;-74
2022/06/01 11:03:21;;;;;;;3.63;3.10;;;28.60;91.10;;;;;;4997394;28;20245;-74
2022/06/01 11:06:26;;;;;;;3.88;3.42;;;28.10;90.30;;;;;;5019716;28;20316;-74
2022/06/01 11:09:23;;;;;;;5.68;3.67;;;28.00;84.20;;;;;;4999146;28;20220;-74
2022/06/01 11:12:19;;;;;;;5.07;3.42;;;26.80;89.70;;;;;;4984749;28;21087;-75
2022/06/01 11:15:18;;;;;;;3.30;3.00;;;25.60;93.90;;;;;;5003934;28;20325;-76
2022/06/01 11:18:23;;;;;;;3.65;3.30;;;25.70;93.90;;;;;;5006959;28;20321;-76
2022/06/01 11:21:23;;;;;;;3.83;3.20;;;26.30;94.90;;;;;;4996814;28;20258;-76
2022/06/01 11:24:32;;;;;;;5.75;3.15;;;29.30;87.90;;;;;;5013829;28;20228;-75
2022/06/01 11:27:44;;;;;;;4.63;3.30;;;31.30;84.00;;;;;;5016990;28;20228;-73
2022/06/01 11:30:42;;;;;;;3.05;2.85;;;29.30;74.10;;;;;;5013915;28;20217;-75
2022/06/01 11:33:37;;;;;;;3.30;3.00;;;27.10;79.50;;;;;;4997441;28;20232;-75
2022/06/01 11:36:35;;;;;;;4.18;2.97;;;30.10;75.10;;;;;;5000198;28;20225;-75
2022/06/01 11:39:30;;;;;;;3.25;2.88;;;29.60;79.90;;;;;;5017280;28;20225;-71
2022/06/01 11:42:28;;;;;;;4.65;3.00;;;26.90;79.80;;;;;;5014290;28;20634;-71
2022/06/01 11:45:20;;;;;;;3.25;2.85;;;28.60;79.20;;;;;;5017110;28;20217;-69
2022/06/01 11:48:11;;;;;;;4.85;2.72;;;26.80;83.10;;;;;;5015352;28;20564;-71
2022/06/01 11:51:15;;;;;;;5.45;2.90;;;27.60;77.90;;;;;;5008910;28;20592;-71
2022/06/01 11:54:09;;;;;;;3.55;2.78;;;26.20;82.50;;;;;;5015450;28;20229;-71
2022/06/01 11:57:01;;;;;;;3.90;3.05;;;25.20;87.40;;;;;;5015078;28;20233;-71
2022/06/01 11:59:58;;;;;;;6.88;3.28;;;24.20;89.70;;;;;;5017237;28;20347;-71
2022/06/01 12:02:53;;;;;;;5.80;3.30;;;23.80;92.80;;;;;;5001681;28;20309;-69
2022/06/01 12:05:58;;;;;;;3.80;3.20;;;23.10;94.00;;;;;;5003852;28;20246;-69
2022/06/01 12:08:51;;;;;;;4.65;3.63;;;22.70;99.90;;;;;;5012362;28;20225;-72
2022/06/01 12:11:45;;;;;;;13.57;5.57;;;22.20;99.90;;;;;;5004629;28;20240;-72
2022/06/01 12:14:38;;;;;;;14.63;6.63;;;21.30;99.90;;;;;;5021726;28;20327;-71
2022/06/01 12:17:37;;;;;;;12.65;7.53;;;20.40;99.90;;;;;;5010781;28;20332;-71
2022/06/01 12:20:46;;;;;;;26.55;8.85;;;19.70;99.90;;;;;;5015241;28;20303;-71
2022/06/01 12:30:48;;;;;;;5.22;3.85;;;25.70;99.90;;;;;;4999467;28;20212;-72
2022/06/01 12:34:07;;;;;;;4.55;3.55;;;26.40;99.90;;;;;;5013525;28;20304;-72
2022/06/01 12:37:06;;;;;;;5.25;3.53;;;26.70;99.90;;;;;;4994854;28;20229;-72
2022/06/01 12:40:00;;;;;;;4.13;3.05;;;26.90;99.90;;;;;;5007253;28;20240;-73
2022/06/01 12:42:54;;;;;;;5.32;3.47;;;26.90;99.90;;;;;;5027526;28;20221;-74
2022/06/01 12:45:45;;;;;;;4.15;3.60;;;26.70;99.90;;;;;;5006491;28;20704;-73
2022/06/01 12:48:35;;;;;;;3.97;3.15;;;26.10;99.90;;;;;;5005323;28;20307;-72
2022/06/01 12:51:24;;;;;;;3.95;3.55;;;25.10;99.90;;;;;;5026173;28;20221;-73
2022/06/01 12:54:25;;;;;;;5.75;3.80;;;24.50;99.90;;;;;;5017041;28;20217;-73
2022/06/01 12:57:25;;;;;;;6.95;4.63;;;23.70;99.90;;;;;;5018372;28;20584;-71
2022/06/01 13:00:21;;;;;;;4.90;4.40;;;23.10;99.90;;;;;;5002552;28;20310;-72
2022/06/01 13:03:12;;;;;;;7.00;4.90;;;22.40;99.90;;;;;;5012670;28;20308;-71
2022/06/01 13:06:07;;;;;;;5.63;4.72;;;22.40;99.90;;;;;;5000688;28;20294;-70
2022/06/01 13:08:58;;;;;;;7.97;5.10;;;22.50;99.90;;;;;;5002041;28;20218;-70
2022/06/01 13:11:57;;;;;;;7.55;4.93;;;22.40;99.90;;;;;;5013407;28;20327;-70
2022/06/01 13:14:46;;;;;;;9.27;4.88;;;22.20;99.90;;;;;;5012817;28;20797;-73
2022/06/01 13:17:46;;;;;;;7.45;5.10;;;22.00;99.90;;;;;;5002231;28;20623;-71
2022/06/01 13:20:37;;;;;;;8.45;5.07;;;21.90;99.90;;;;;;5011624;28;20643;-71
2022/06/01 13:23:31;;;;;;;6.80;4.03;;;21.70;99.90;;;;;;4994151;28;20233;-72
2022/06/01 13:26:32;;;;;;;4.28;3.80;;;21.60;99.90;;;;;;4997906;28;20230;-71
2022/06/01 13:29:22;;;;;;;4.97;3.72;;;21.60;99.90;;;;;;5012953;28;20945;-71
2022/06/01 13:32:14;;;;;;;4.10;3.28;;;21.60;99.90;;;;;;5002876;28;20762;-70
2022/06/01 13:35:27;;;;;;;8.02;3.60;;;21.90;99.90;;;;;;4996708;28;20861;-73
2022/06/01 13:38:19;;;;;;;5.55;3.15;;;22.20;99.90;;;;;;4995018;28;21990;-71
2022/06/01 13:41:13;;;;;;;4.20;2.67;;;22.20;99.90;;;;;;5004215;28;20237;-73
2022/06/01 13:44:05;;;;;;;2.60;2.40;;;21.70;99.90;;;;;;5019287;28;20237;-70
2022/06/01 13:46:57;;;;;;;4.22;2.10;;;21.40;99.90;;;;;;5004530;28;20210;-72
2022/06/01 13:49:48;;;;;;;3.60;1.88;;;21.70;99.90;;;;;;5012532;28;20241;-72
2022/06/01 13:52:40;;;;;;;4.80;2.42;;;21.20;99.90;;;;;;5014522;28;20286;-73
2022/06/01 13:55:30;;;;;;;2.60;1.92;;;21.50;99.90;;;;;;5013868;28;20229;-70
2022/06/01 13:58:25;;;;;;;2.30;1.90;;;21.30;99.90;;;;;;5010578;28;20277;-70
2022/06/01 14:01:20;;;;;;;2.60;2.10;;;21.40;95.20;;;;;;5029353;28;20244;-71
2022/06/01 14:04:20;;;;;;;5.25;1.90;;;21.20;99.90;;;;;;5023158;28;20308;-71
2022/06/01 14:07:12;;;;;;;2.55;2.00;;;21.20;97.90;;;;;;5007328;28;20225;-71
2022/06/01 14:10:03;;;;;;;4.93;2.17;;;21.10;99.90;;;;;;5018085;28;20222;-70
2022/06/01 14:12:52;;;;;;;2.38;1.98;;;21.00;99.90;;;;;;5005914;28;20228;-71
2022/06/01 14:15:45;;;;;;;6.18;2.25;;;21.00;94.50;;;;;;5003142;28;20712;-71
2022/06/01 14:18:34;;;;;;;2.85;2.25;;;21.00;92.10;;;;;;5018492;28;20226;-71
2022/06/01 14:21:23;;;;;;;4.75;2.08;;;21.10;94.00;;;;;;5015653;28;20316;-72
2022/06/01 14:24:12;;;;;;;2.92;2.10;;;21.00;93.00;;;;;;5019123;28;20222;-73
2022/06/01 14:30:11;;;;;;;2.92;2.15;;;21.00;91.00;;;;;;5028583;28;20898;-73
2022/06/01 14:33:01;;;;;;;2.47;2.20;;;21.00;96.20;;;;;;5034816;28;20260;-70
2022/06/01 14:35:51;;;;;;;2.20;2.00;;;20.90;94.20;;;;;;5001130;28;20716;-75
2022/06/01 14:38:40;;;;;;;5.28;1.83;;;20.90;91.70;;;;;;5013165;28;20572;-73
2022/06/01 14:41:32;;;;;;;5.80;2.10;;;20.90;86.00;;;;;;5016870;28;20238;-73
2022/06/01 14:44:24;;;;;;;4.30;2.30;;;20.90;91.80;;;;;;5018536;28;20222;-73
2022/06/01 14:47:14;;;;;;;4.72;2.67;;;20.90;92.30;;;;;;5026382;28;20221;-73
2022/06/01 14:50:06;;;;;;;2.20;2.00;;;20.80;91.30;;;;;;5007380;28;20226;-74
2022/06/01 14:52:55;;;;;;;3.15;2.15;;;20.90;88.70;;;;;;4994290;28;20658;-73
2022/06/01 14:55:44;;;;;;;4.32;2.00;;;20.80;90.60;;;;;;5015859;28;20217;-73
2022/06/01 14:58:33;;;;;;;2.22;1.80;;;20.80;88.40;;;;;;5014781;28;20221;-73
2022/06/01 15:01:37;;;;;;;2.17;1.58;;;20.80;85.30;;;;;;5024690;28;20222;-73
2022/06/01 15:04:30;;;;;;;1.90;1.70;;;20.80;88.40;;;;;;5015055;28;20226;-73
2022/06/01 15:07:19;;;;;;;5.30;1.90;;;20.80;85.80;;;;;;5018055;28;20308;-72
2022/06/01 15:10:08;;;;;;;5.15;1.73;;;20.80;85.40;;;;;;5024835;28;20225;-72
2022/06/01 15:12:58;;;;;;;3.38;3.08;;;20.80;83.50;;;;;;5023174;28;20750;-73
2022/06/01 15:15:47;;;;;;;2.17;1.55;;;20.80;83.50;;;;;;5017272;28;20367;-74
2022/06/01 15:18:42;;;;;;;4.40;2.28;;;20.80;83.50;;;;;;5018035;28;20783;-73
2022/06/01 15:21:31;;;;;;;4.53;1.70;;;20.70;81.00;;;;;;5017283;28;20222;-72
2022/06/01 15:24:21;;;;;;;2.15;1.58;;;20.70;81.70;;;;;;5007126;28;20225;-73